ビサウ の空港の天気 - METARとTAF

オスヴァルド・ヴィエイラ国際空港 ( GGOV / OXB ) - ギニアビサウ ビサウ
飛行場実況気象(Metar)
観測時間11/21 12:00 GMT (11/21 12:00 UTC)
風向・風速東 5m/s
視程10km以上
天気現象
なし
気温30℃
湿度38%
気圧1011hPa
METARGGOV 211200Z 09010KT CAVOK 30/14 Q1011 NOSIG
過去の天気等 Google飛行場航空写真 Wunderground天気予報

過去48時間のMETAR

飛行場予報(TAF)
発表時間: 11/21 11:00 GMT (11/21 11:00 UTC)
予報対象時間: 21日12時 GMT ~ 22日12時 GMT
風向・風速東 3m/s
視程10km以上
なし
TAF GGOV 211100Z 2112/2212 08006KT CAVOK